sensor_id;sensor_type;location;lat;lon;timestamp;P1;durP1;ratioP1;P2;durP2;ratioP2
4226;SDS011;2127;51.046;7.080;2023-05-15T00:01:14;0.70;;;0.70;;
4226;SDS011;2127;51.046;7.080;2023-05-15T00:03:40;0.80;;;0.80;;
4226;SDS011;2127;51.046;7.080;2023-05-15T00:06:07;0.53;;;0.53;;
4226;SDS011;2127;51.046;7.080;2023-05-15T00:08:33;0.90;;;0.90;;
4226;SDS011;2127;51.046;7.080;2023-05-15T00:10:59;2.30;;;0.90;;
4226;SDS011;2127;51.046;7.080;2023-05-15T00:13:27;0.73;;;0.73;;
4226;SDS011;2127;51.046;7.080;2023-05-15T00:15:53;1.10;;;1.10;;
4226;SDS011;2127;51.046;7.080;2023-05-15T00:18:20;1.13;;;1.03;;
4226;SDS011;2127;51.046;7.080;2023-05-15T00:20:46;1.00;;;1.00;;
4226;SDS011;2127;51.046;7.080;2023-05-15T00:23:12;0.80;;;0.80;;
4226;SDS011;2127;51.046;7.080;2023-05-15T00:25:38;0.50;;;0.50;;
4226;SDS011;2127;51.046;7.080;2023-05-15T00:28:05;0.80;;;0.80;;
4226;SDS011;2127;51.046;7.080;2023-05-15T00:30:32;1.13;;;0.70;;
4226;SDS011;2127;51.046;7.080;2023-05-15T00:32:59;0.70;;;0.70;;
4226;SDS011;2127;51.046;7.080;2023-05-15T00:35:25;1.10;;;1.10;;
4226;SDS011;2127;51.046;7.080;2023-05-15T00:37:51;0.80;;;0.80;;
4226;SDS011;2127;51.046;7.080;2023-05-15T00:40:20;0.90;;;0.90;;
4226;SDS011;2127;51.046;7.080;2023-05-15T00:42:46;1.67;;;0.80;;
4226;SDS011;2127;51.046;7.080;2023-05-15T00:45:13;0.50;;;0.50;;
4226;SDS011;2127;51.046;7.080;2023-05-15T00:47:41;0.70;;;0.70;;
4226;SDS011;2127;51.046;7.080;2023-05-15T00:50:08;0.80;;;0.80;;
4226;SDS011;2127;51.046;7.080;2023-05-15T00:52:35;1.33;;;1.10;;
4226;SDS011;2127;51.046;7.080;2023-05-15T00:55:01;0.83;;;0.83;;
4226;SDS011;2127;51.046;7.080;2023-05-15T00:57:28;0.87;;;0.87;;
4226;SDS011;2127;51.046;7.080;2023-05-15T00:59:55;2.43;;;0.80;;
4226;SDS011;2127;51.046;7.080;2023-05-15T01:02:22;0.57;;;0.57;;
4226;SDS011;2127;51.046;7.080;2023-05-15T01:04:50;0.90;;;0.90;;
4226;SDS011;2127;51.046;7.080;2023-05-15T01:07:16;1.03;;;0.93;;
4226;SDS011;2127;51.046;7.080;2023-05-15T01:09:43;1.00;;;1.00;;
4226;SDS011;2127;51.046;7.080;2023-05-15T01:12:09;0.87;;;0.87;;
4226;SDS011;2127;51.046;7.080;2023-05-15T01:14:36;0.80;;;0.80;;
4226;SDS011;2127;51.046;7.080;2023-05-15T01:17:02;1.13;;;1.13;;
4226;SDS011;2127;51.046;7.080;2023-05-15T01:19:29;0.80;;;0.80;;
4226;SDS011;2127;51.046;7.080;2023-05-15T01:25:00;1.00;;;1.00;;
4226;SDS011;2127;51.046;7.080;2023-05-15T01:27:31;12.83;;;1.13;;
4226;SDS011;2127;51.046;7.080;2023-05-15T01:30:02;1.07;;;1.07;;
4226;SDS011;2127;51.046;7.080;2023-05-15T01:32:33;1.13;;;1.13;;
4226;SDS011;2127;51.046;7.080;2023-05-15T01:35:04;1.17;;;1.17;;
4226;SDS011;2127;51.046;7.080;2023-05-15T01:37:34;0.97;;;0.97;;
4226;SDS011;2127;51.046;7.080;2023-05-15T01:40:02;3.57;;;0.73;;
4226;SDS011;2127;51.046;7.080;2023-05-15T01:42:30;1.13;;;1.13;;
4226;SDS011;2127;51.046;7.080;2023-05-15T01:45:00;1.80;;;0.93;;
4226;SDS011;2127;51.046;7.080;2023-05-15T01:47:30;3.07;;;1.00;;
4226;SDS011;2127;51.046;7.080;2023-05-15T01:49:56;1.10;;;1.10;;
4226;SDS011;2127;51.046;7.080;2023-05-15T01:52:26;1.87;;;1.50;;
4226;SDS011;2127;51.046;7.080;2023-05-15T01:54:53;0.80;;;0.80;;
4226;SDS011;2127;51.046;7.080;2023-05-15T01:57:20;1.90;;;1.07;;
4226;SDS011;2127;51.046;7.080;2023-05-15T01:59:47;0.70;;;0.70;;
4226;SDS011;2127;51.046;7.080;2023-05-15T02:02:15;0.67;;;0.67;;
4226;SDS011;2127;51.046;7.080;2023-05-15T02:04:42;1.03;;;1.03;;
4226;SDS011;2127;51.046;7.080;2023-05-15T02:07:09;1.23;;;0.97;;
4226;SDS011;2127;51.046;7.080;2023-05-15T02:09:36;1.20;;;1.00;;
4226;SDS011;2127;51.046;7.080;2023-05-15T02:12:02;2.60;;;1.90;;
4226;SDS011;2127;51.046;7.080;2023-05-15T02:14:29;1.37;;;0.97;;
4226;SDS011;2127;51.046;7.080;2023-05-15T02:16:55;1.20;;;1.20;;
4226;SDS011;2127;51.046;7.080;2023-05-15T02:19:23;1.83;;;1.13;;
4226;SDS011;2127;51.046;7.080;2023-05-15T02:21:49;1.23;;;1.23;;
4226;SDS011;2127;51.046;7.080;2023-05-15T02:24:16;1.13;;;1.13;;
4226;SDS011;2127;51.046;7.080;2023-05-15T02:26:45;1.67;;;1.57;;
4226;SDS011;2127;51.046;7.080;2023-05-15T02:29:16;3.23;;;1.53;;
4226;SDS011;2127;51.046;7.080;2023-05-15T02:31:44;1.00;;;0.90;;
4226;SDS011;2127;51.046;7.080;2023-05-15T02:34:14;1.30;;;1.30;;
4226;SDS011;2127;51.046;7.080;2023-05-15T02:36:43;1.70;;;1.60;;
4226;SDS011;2127;51.046;7.080;2023-05-15T02:39:11;1.43;;;1.33;;
4226;SDS011;2127;51.046;7.080;2023-05-15T02:41:38;1.70;;;1.10;;
4226;SDS011;2127;51.046;7.080;2023-05-15T02:44:05;1.30;;;1.10;;
4226;SDS011;2127;51.046;7.080;2023-05-15T02:46:32;1.17;;;1.17;;
4226;SDS011;2127;51.046;7.080;2023-05-15T02:48:59;1.23;;;1.23;;
4226;SDS011;2127;51.046;7.080;2023-05-15T02:51:25;1.60;;;1.50;;
4226;SDS011;2127;51.046;7.080;2023-05-15T02:53:53;1.70;;;1.60;;
4226;SDS011;2127;51.046;7.080;2023-05-15T02:56:20;2.43;;;2.33;;
4226;SDS011;2127;51.046;7.080;2023-05-15T02:58:46;2.43;;;2.23;;
4226;SDS011;2127;51.046;7.080;2023-05-15T03:01:13;3.50;;;3.30;;
4226;SDS011;2127;51.046;7.080;2023-05-15T03:03:40;3.43;;;3.17;;
4226;SDS011;2127;51.046;7.080;2023-05-15T03:06:06;9.10;;;3.20;;
4226;SDS011;2127;51.046;7.080;2023-05-15T03:08:32;3.33;;;2.97;;
4226;SDS011;2127;51.046;7.080;2023-05-15T03:11:00;4.43;;;4.00;;
4226;SDS011;2127;51.046;7.080;2023-05-15T03:13:26;3.70;;;3.50;;
4226;SDS011;2127;51.046;7.080;2023-05-15T03:15:52;3.63;;;3.33;;
4226;SDS011;2127;51.046;7.080;2023-05-15T03:18:19;4.50;;;4.10;;
4226;SDS011;2127;51.046;7.080;2023-05-15T03:20:45;5.13;;;3.77;;
4226;SDS011;2127;51.046;7.080;2023-05-15T03:23:12;5.10;;;4.60;;
4226;SDS011;2127;51.046;7.080;2023-05-15T03:25:38;9.90;;;5.10;;
4226;SDS011;2127;51.046;7.080;2023-05-15T03:28:06;10.53;;;4.20;;
4226;SDS011;2127;51.046;7.080;2023-05-15T03:30:32;8.80;;;4.30;;
4226;SDS011;2127;51.046;7.080;2023-05-15T03:32:58;5.90;;;4.90;;
4226;SDS011;2127;51.046;7.080;2023-05-15T03:35:27;7.23;;;4.97;;
4226;SDS011;2127;51.046;7.080;2023-05-15T03:37:54;10.07;;;5.50;;
4226;SDS011;2127;51.046;7.080;2023-05-15T03:40:20;7.47;;;4.03;;
4226;SDS011;2127;51.046;7.080;2023-05-15T03:42:46;15.70;;;4.80;;
4226;SDS011;2127;51.046;7.080;2023-05-15T03:45:14;18.33;;;5.87;;
4226;SDS011;2127;51.046;7.080;2023-05-15T03:47:40;8.33;;;5.03;;
4226;SDS011;2127;51.046;7.080;2023-05-15T03:50:07;13.07;;;5.50;;
4226;SDS011;2127;51.046;7.080;2023-05-15T03:52:33;8.40;;;5.80;;
4226;SDS011;2127;51.046;7.080;2023-05-15T03:55:00;16.37;;;5.13;;
4226;SDS011;2127;51.046;7.080;2023-05-15T03:57:26;8.43;;;5.57;;
4226;SDS011;2127;51.046;7.080;2023-05-15T03:59:52;6.10;;;5.07;;
4226;SDS011;2127;51.046;7.080;2023-05-15T04:02:20;13.10;;;6.63;;
4226;SDS011;2127;51.046;7.080;2023-05-15T04:04:46;19.63;;;6.50;;
4226;SDS011;2127;51.046;7.080;2023-05-15T04:07:12;11.80;;;7.70;;
4226;SDS011;2127;51.046;7.080;2023-05-15T04:09:39;18.63;;;6.20;;
4226;SDS011;2127;51.046;7.080;2023-05-15T04:12:05;13.07;;;8.07;;
4226;SDS011;2127;51.046;7.080;2023-05-15T04:14:31;17.70;;;6.90;;
4226;SDS011;2127;51.046;7.080;2023-05-15T04:16:58;15.97;;;6.93;;
4226;SDS011;2127;51.046;7.080;2023-05-15T04:19:25;11.47;;;6.90;;
4226;SDS011;2127;51.046;7.080;2023-05-15T04:21:52;13.40;;;6.60;;
4226;SDS011;2127;51.046;7.080;2023-05-15T04:24:18;11.57;;;6.87;;
4226;SDS011;2127;51.046;7.080;2023-05-15T04:26:44;16.33;;;6.10;;
4226;SDS011;2127;51.046;7.080;2023-05-15T04:29:11;40.70;;;10.13;;
4226;SDS011;2127;51.046;7.080;2023-05-15T04:31:37;18.87;;;7.00;;
4226;SDS011;2127;51.046;7.080;2023-05-15T04:34:03;21.57;;;10.47;;
4226;SDS011;2127;51.046;7.080;2023-05-15T04:36:31;19.43;;;8.77;;
4226;SDS011;2127;51.046;7.080;2023-05-15T04:38:58;18.93;;;9.80;;
4226;SDS011;2127;51.046;7.080;2023-05-15T04:41:24;22.30;;;11.60;;
4226;SDS011;2127;51.046;7.080;2023-05-15T04:43:51;26.63;;;9.63;;
4226;SDS011;2127;51.046;7.080;2023-05-15T04:46:17;21.73;;;9.80;;
4226;SDS011;2127;51.046;7.080;2023-05-15T04:48:43;36.53;;;10.53;;
4226;SDS011;2127;51.046;7.080;2023-05-15T04:51:10;17.80;;;8.53;;
4226;SDS011;2127;51.046;7.080;2023-05-15T04:53:38;14.80;;;7.87;;
4226;SDS011;2127;51.046;7.080;2023-05-15T04:56:04;22.50;;;11.43;;
4226;SDS011;2127;51.046;7.080;2023-05-15T04:58:30;18.77;;;8.53;;
4226;SDS011;2127;51.046;7.080;2023-05-15T05:00:57;12.80;;;8.43;;
4226;SDS011;2127;51.046;7.080;2023-05-15T05:03:23;20.93;;;9.30;;
4226;SDS011;2127;51.046;7.080;2023-05-15T05:05:49;22.80;;;9.67;;
4226;SDS011;2127;51.046;7.080;2023-05-15T05:08:15;32.50;;;7.97;;
4226;SDS011;2127;51.046;7.080;2023-05-15T05:10:43;25.80;;;10.03;;
4226;SDS011;2127;51.046;7.080;2023-05-15T05:13:09;17.57;;;10.93;;
4226;SDS011;2127;51.046;7.080;2023-05-15T05:15:35;20.93;;;8.50;;
4226;SDS011;2127;51.046;7.080;2023-05-15T05:18:02;19.30;;;9.50;;
4226;SDS011;2127;51.046;7.080;2023-05-15T05:20:28;21.43;;;9.00;;
4226;SDS011;2127;51.046;7.080;2023-05-15T05:22:55;14.63;;;8.23;;
4226;SDS011;2127;51.046;7.080;2023-05-15T05:25:21;21.30;;;9.90;;
4226;SDS011;2127;51.046;7.080;2023-05-15T05:27:48;19.80;;;8.60;;
4226;SDS011;2127;51.046;7.080;2023-05-15T05:30:15;19.90;;;8.90;;
4226;SDS011;2127;51.046;7.080;2023-05-15T05:32:41;20.60;;;9.17;;
4226;SDS011;2127;51.046;7.080;2023-05-15T05:35:08;25.80;;;9.00;;
4226;SDS011;2127;51.046;7.080;2023-05-15T05:37:34;15.33;;;7.73;;
4226;SDS011;2127;51.046;7.080;2023-05-15T05:40:00;12.03;;;6.57;;
4226;SDS011;2127;51.046;7.080;2023-05-15T05:42:26;10.40;;;7.83;;
4226;SDS011;2127;51.046;7.080;2023-05-15T05:44:54;15.00;;;9.23;;
4226;SDS011;2127;51.046;7.080;2023-05-15T05:47:20;19.13;;;8.87;;
4226;SDS011;2127;51.046;7.080;2023-05-15T05:49:47;22.47;;;9.80;;
4226;SDS011;2127;51.046;7.080;2023-05-15T05:52:13;32.13;;;9.57;;
4226;SDS011;2127;51.046;7.080;2023-05-15T05:54:40;16.33;;;8.17;;
4226;SDS011;2127;51.046;7.080;2023-05-15T05:57:06;20.70;;;8.73;;
4226;SDS011;2127;51.046;7.080;2023-05-15T05:59:34;16.60;;;9.20;;
4226;SDS011;2127;51.046;7.080;2023-05-15T06:02:02;18.27;;;11.60;;
4226;SDS011;2127;51.046;7.080;2023-05-15T06:04:29;28.03;;;9.20;;
4226;SDS011;2127;51.046;7.080;2023-05-15T06:06:55;18.33;;;9.90;;
4226;SDS011;2127;51.046;7.080;2023-05-15T06:09:22;25.50;;;11.03;;
4226;SDS011;2127;51.046;7.080;2023-05-15T06:11:48;26.73;;;9.90;;
4226;SDS011;2127;51.046;7.080;2023-05-15T06:14:14;21.17;;;9.23;;
4226;SDS011;2127;51.046;7.080;2023-05-15T06:16:41;34.67;;;10.53;;
4226;SDS011;2127;51.046;7.080;2023-05-15T06:19:09;19.70;;;9.43;;
4226;SDS011;2127;51.046;7.080;2023-05-15T06:21:35;19.77;;;9.57;;
4226;SDS011;2127;51.046;7.080;2023-05-15T06:24:01;28.90;;;12.30;;
4226;SDS011;2127;51.046;7.080;2023-05-15T06:26:28;25.97;;;9.87;;
4226;SDS011;2127;51.046;7.080;2023-05-15T06:28:54;35.63;;;10.53;;
4226;SDS011;2127;51.046;7.080;2023-05-15T06:31:21;18.43;;;10.47;;
4226;SDS011;2127;51.046;7.080;2023-05-15T06:33:47;23.10;;;9.60;;
4226;SDS011;2127;51.046;7.080;2023-05-15T06:36:15;17.80;;;8.60;;
4226;SDS011;2127;51.046;7.080;2023-05-15T06:38:41;20.10;;;11.00;;
4226;SDS011;2127;51.046;7.080;2023-05-15T06:41:07;15.90;;;8.80;;
4226;SDS011;2127;51.046;7.080;2023-05-15T06:43:34;25.13;;;9.13;;
4226;SDS011;2127;51.046;7.080;2023-05-15T06:46:00;12.97;;;7.20;;
4226;SDS011;2127;51.046;7.080;2023-05-15T06:48:26;10.80;;;7.57;;
4226;SDS011;2127;51.046;7.080;2023-05-15T06:50:52;19.43;;;7.60;;
4226;SDS011;2127;51.046;7.080;2023-05-15T06:53:20;23.07;;;8.90;;
4226;SDS011;2127;51.046;7.080;2023-05-15T06:55:46;13.70;;;7.27;;
4226;SDS011;2127;51.046;7.080;2023-05-15T06:58:13;15.00;;;8.33;;
4226;SDS011;2127;51.046;7.080;2023-05-15T07:00:41;16.13;;;9.03;;
4226;SDS011;2127;51.046;7.080;2023-05-15T07:03:08;19.43;;;8.37;;
4226;SDS011;2127;51.046;7.080;2023-05-15T07:05:34;11.53;;;7.57;;
4226;SDS011;2127;51.046;7.080;2023-05-15T07:08:00;14.60;;;9.73;;
4226;SDS011;2127;51.046;7.080;2023-05-15T07:10:28;16.80;;;9.53;;
4226;SDS011;2127;51.046;7.080;2023-05-15T07:12:54;21.27;;;8.37;;
4226;SDS011;2127;51.046;7.080;2023-05-15T07:15:21;18.83;;;8.73;;
4226;SDS011;2127;51.046;7.080;2023-05-15T07:17:47;15.33;;;8.93;;
4226;SDS011;2127;51.046;7.080;2023-05-15T07:20:13;22.13;;;9.33;;
4226;SDS011;2127;51.046;7.080;2023-05-15T07:22:39;21.33;;;9.93;;
4226;SDS011;2127;51.046;7.080;2023-05-15T07:25:06;11.47;;;8.30;;
4226;SDS011;2127;51.046;7.080;2023-05-15T07:27:34;15.87;;;9.77;;
4226;SDS011;2127;51.046;7.080;2023-05-15T07:30:00;22.57;;;9.40;;
4226;SDS011;2127;51.046;7.080;2023-05-15T07:32:27;26.57;;;10.77;;
4226;SDS011;2127;51.046;7.080;2023-05-15T07:34:54;16.90;;;9.10;;
4226;SDS011;2127;51.046;7.080;2023-05-15T07:37:20;14.10;;;8.80;;
4226;SDS011;2127;51.046;7.080;2023-05-15T07:39:47;22.13;;;10.30;;
4226;SDS011;2127;51.046;7.080;2023-05-15T07:42:13;20.00;;;8.20;;
4226;SDS011;2127;51.046;7.080;2023-05-15T07:44:41;13.17;;;8.33;;
4226;SDS011;2127;51.046;7.080;2023-05-15T07:47:07;17.33;;;7.23;;
4226;SDS011;2127;51.046;7.080;2023-05-15T07:49:33;12.77;;;7.50;;
4226;SDS011;2127;51.046;7.080;2023-05-15T07:52:00;17.27;;;8.50;;
4226;SDS011;2127;51.046;7.080;2023-05-15T07:54:26;16.17;;;8.23;;
4226;SDS011;2127;51.046;7.080;2023-05-15T07:56:54;30.53;;;7.67;;
4226;SDS011;2127;51.046;7.080;2023-05-15T07:59:20;20.23;;;9.33;;
4226;SDS011;2127;51.046;7.080;2023-05-15T08:01:47;10.90;;;7.43;;
4226;SDS011;2127;51.046;7.080;2023-05-15T08:04:14;15.87;;;9.00;;
4226;SDS011;2127;51.046;7.080;2023-05-15T08:06:40;26.47;;;8.93;;
4226;SDS011;2127;51.046;7.080;2023-05-15T08:09:07;12.33;;;8.00;;
4226;SDS011;2127;51.046;7.080;2023-05-15T08:11:34;18.27;;;9.73;;
4226;SDS011;2127;51.046;7.080;2023-05-15T08:14:00;18.10;;;9.77;;
4226;SDS011;2127;51.046;7.080;2023-05-15T08:16:26;14.27;;;9.20;;
4226;SDS011;2127;51.046;7.080;2023-05-15T08:18:54;18.67;;;8.70;;
4226;SDS011;2127;51.046;7.080;2023-05-15T08:21:25;13.10;;;7.73;;
4226;SDS011;2127;51.046;7.080;2023-05-15T08:23:51;16.80;;;8.90;;
4226;SDS011;2127;51.046;7.080;2023-05-15T08:26:17;29.20;;;9.60;;
4226;SDS011;2127;51.046;7.080;2023-05-15T08:28:44;18.20;;;10.63;;
4226;SDS011;2127;51.046;7.080;2023-05-15T08:31:10;17.67;;;9.63;;
4226;SDS011;2127;51.046;7.080;2023-05-15T08:33:36;21.50;;;10.33;;
4226;SDS011;2127;51.046;7.080;2023-05-15T08:36:04;17.00;;;7.97;;
4226;SDS011;2127;51.046;7.080;2023-05-15T08:38:30;14.97;;;8.20;;
4226;SDS011;2127;51.046;7.080;2023-05-15T08:40:57;13.23;;;8.97;;
4226;SDS011;2127;51.046;7.080;2023-05-15T08:43:23;17.80;;;9.07;;
4226;SDS011;2127;51.046;7.080;2023-05-15T08:45:51;10.27;;;7.07;;
4226;SDS011;2127;51.046;7.080;2023-05-15T08:48:19;15.27;;;10.70;;
4226;SDS011;2127;51.046;7.080;2023-05-15T08:50:46;25.30;;;8.37;;
4226;SDS011;2127;51.046;7.080;2023-05-15T08:53:13;23.30;;;8.23;;
4226;SDS011;2127;51.046;7.080;2023-05-15T08:55:40;20.83;;;8.97;;
4226;SDS011;2127;51.046;7.080;2023-05-15T08:58:07;15.43;;;9.00;;
4226;SDS011;2127;51.046;7.080;2023-05-15T09:00:34;26.63;;;8.03;;
4226;SDS011;2127;51.046;7.080;2023-05-15T09:03:00;10.00;;;7.17;;
4226;SDS011;2127;51.046;7.080;2023-05-15T09:05:26;22.23;;;9.43;;
4226;SDS011;2127;51.046;7.080;2023-05-15T09:07:53;13.63;;;7.83;;
4226;SDS011;2127;51.046;7.080;2023-05-15T09:10:21;18.60;;;9.60;;
4226;SDS011;2127;51.046;7.080;2023-05-15T09:12:49;14.70;;;8.13;;
4226;SDS011;2127;51.046;7.080;2023-05-15T09:15:17;12.43;;;9.10;;
4226;SDS011;2127;51.046;7.080;2023-05-15T09:17:46;13.63;;;8.67;;
4226;SDS011;2127;51.046;7.080;2023-05-15T09:20:25;14.47;;;8.90;;
4226;SDS011;2127;51.046;7.080;2023-05-15T09:22:52;14.10;;;9.10;;
4226;SDS011;2127;51.046;7.080;2023-05-15T09:25:32;11.13;;;8.07;;
4226;SDS011;2127;51.046;7.080;2023-05-15T09:27:58;19.23;;;8.77;;
4226;SDS011;2127;51.046;7.080;2023-05-15T09:30:25;9.33;;;8.37;;
4226;SDS011;2127;51.046;7.080;2023-05-15T09:32:52;11.50;;;7.83;;
4226;SDS011;2127;51.046;7.080;2023-05-15T09:35:29;13.40;;;8.60;;
4226;SDS011;2127;51.046;7.080;2023-05-15T09:37:56;9.17;;;7.53;;
4226;SDS011;2127;51.046;7.080;2023-05-15T09:40:23;11.70;;;7.07;;
4226;SDS011;2127;51.046;7.080;2023-05-15T09:42:54;23.93;;;9.30;;
4226;SDS011;2127;51.046;7.080;2023-05-15T09:45:21;14.87;;;8.23;;
4226;SDS011;2127;51.046;7.080;2023-05-15T09:47:49;11.77;;;7.63;;
4226;SDS011;2127;51.046;7.080;2023-05-15T09:50:19;11.53;;;6.37;;
4226;SDS011;2127;51.046;7.080;2023-05-15T09:52:45;12.57;;;8.63;;
4226;SDS011;2127;51.046;7.080;2023-05-15T09:55:13;11.20;;;7.03;;
4226;SDS011;2127;51.046;7.080;2023-05-15T09:57:41;9.33;;;6.57;;
4226;SDS011;2127;51.046;7.080;2023-05-15T10:00:10;11.17;;;6.80;;
4226;SDS011;2127;51.046;7.080;2023-05-15T10:02:38;9.93;;;7.13;;
4226;SDS011;2127;51.046;7.080;2023-05-15T10:05:05;12.03;;;7.97;;
4226;SDS011;2127;51.046;7.080;2023-05-15T10:07:33;14.53;;;7.63;;
4226;SDS011;2127;51.046;7.080;2023-05-15T10:09:59;9.30;;;7.10;;
4226;SDS011;2127;51.046;7.080;2023-05-15T10:12:26;7.40;;;6.27;;
4226;SDS011;2127;51.046;7.080;2023-05-15T10:14:53;12.37;;;7.50;;
4226;SDS011;2127;51.046;7.080;2023-05-15T10:17:22;9.93;;;5.97;;
4226;SDS011;2127;51.046;7.080;2023-05-15T10:19:49;8.80;;;6.10;;
4226;SDS011;2127;51.046;7.080;2023-05-15T10:22:16;9.53;;;6.07;;
4226;SDS011;2127;51.046;7.080;2023-05-15T10:24:44;8.33;;;6.47;;
4226;SDS011;2127;51.046;7.080;2023-05-15T10:27:12;8.77;;;5.63;;
4226;SDS011;2127;51.046;7.080;2023-05-15T10:29:39;9.90;;;6.10;;
4226;SDS011;2127;51.046;7.080;2023-05-15T10:32:05;4.97;;;4.47;;
4226;SDS011;2127;51.046;7.080;2023-05-15T10:34:33;6.30;;;5.77;;
4226;SDS011;2127;51.046;7.080;2023-05-15T10:36:59;7.47;;;5.07;;
4226;SDS011;2127;51.046;7.080;2023-05-15T10:39:26;6.73;;;5.30;;
4226;SDS011;2127;51.046;7.080;2023-05-15T10:41:52;5.33;;;4.83;;
4226;SDS011;2127;51.046;7.080;2023-05-15T10:44:19;8.33;;;4.63;;
4226;SDS011;2127;51.046;7.080;2023-05-15T10:46:45;9.03;;;5.80;;
4226;SDS011;2127;51.046;7.080;2023-05-15T10:49:11;8.47;;;5.80;;
4226;SDS011;2127;51.046;7.080;2023-05-15T10:51:40;4.87;;;4.30;;
4226;SDS011;2127;51.046;7.080;2023-05-15T10:54:07;5.73;;;4.40;;
4226;SDS011;2127;51.046;7.080;2023-05-15T10:56:36;9.10;;;4.10;;
4226;SDS011;2127;51.046;7.080;2023-05-15T10:59:05;5.03;;;4.37;;
4226;SDS011;2127;51.046;7.080;2023-05-15T11:01:32;11.47;;;3.60;;
4226;SDS011;2127;51.046;7.080;2023-05-15T11:04:09;6.83;;;3.27;;
4226;SDS011;2127;51.046;7.080;2023-05-15T11:06:36;4.17;;;3.23;;
4226;SDS011;2127;51.046;7.080;2023-05-15T11:11:55;8.57;;;3.13;;
4226;SDS011;2127;51.046;7.080;2023-05-15T11:14:22;3.90;;;3.60;;
4226;SDS011;2127;51.046;7.080;2023-05-15T11:16:58;4.37;;;4.00;;
4226;SDS011;2127;51.046;7.080;2023-05-15T11:19:30;4.17;;;3.77;;
4226;SDS011;2127;51.046;7.080;2023-05-15T11:21:56;4.33;;;3.93;;
4226;SDS011;2127;51.046;7.080;2023-05-15T11:24:25;3.40;;;3.00;;
4226;SDS011;2127;51.046;7.080;2023-05-15T11:26:57;3.83;;;3.63;;
4226;SDS011;2127;51.046;7.080;2023-05-15T11:29:24;4.60;;;2.83;;
4226;SDS011;2127;51.046;7.080;2023-05-15T11:31:50;3.80;;;3.50;;
4226;SDS011;2127;51.046;7.080;2023-05-15T11:34:27;3.40;;;3.10;;
4226;SDS011;2127;51.046;7.080;2023-05-15T11:36:53;3.90;;;3.00;;
4226;SDS011;2127;51.046;7.080;2023-05-15T11:39:22;4.20;;;3.40;;
4226;SDS011;2127;51.046;7.080;2023-05-15T11:41:49;4.30;;;2.93;;
4226;SDS011;2127;51.046;7.080;2023-05-15T11:44:19;3.30;;;3.00;;
4226;SDS011;2127;51.046;7.080;2023-05-15T11:46:45;3.73;;;3.23;;
4226;SDS011;2127;51.046;7.080;2023-05-15T11:49:12;3.23;;;2.93;;
4226;SDS011;2127;51.046;7.080;2023-05-15T11:51:39;5.33;;;2.37;;
4226;SDS011;2127;51.046;7.080;2023-05-15T11:54:07;2.87;;;2.77;;
4226;SDS011;2127;51.046;7.080;2023-05-15T11:56:35;4.23;;;3.10;;
4226;SDS011;2127;51.046;7.080;2023-05-15T11:59:06;3.10;;;2.60;;
4226;SDS011;2127;51.046;7.080;2023-05-15T12:01:39;3.07;;;2.87;;
4226;SDS011;2127;51.046;7.080;2023-05-15T12:04:10;3.87;;;2.90;;
4226;SDS011;2127;51.046;7.080;2023-05-15T12:06:37;2.70;;;1.93;;
4226;SDS011;2127;51.046;7.080;2023-05-15T12:09:03;3.67;;;3.00;;
4226;SDS011;2127;51.046;7.080;2023-05-15T12:11:29;4.53;;;2.90;;
4226;SDS011;2127;51.046;7.080;2023-05-15T12:13:56;2.50;;;2.30;;
4226;SDS011;2127;51.046;7.080;2023-05-15T12:16:23;2.87;;;2.67;;
4226;SDS011;2127;51.046;7.080;2023-05-15T12:18:51;1.50;;;1.40;;
4226;SDS011;2127;51.046;7.080;2023-05-15T12:21:18;3.53;;;3.23;;
4226;SDS011;2127;51.046;7.080;2023-05-15T12:23:49;2.27;;;1.80;;
4226;SDS011;2127;51.046;7.080;2023-05-15T12:26:16;6.20;;;3.43;;
4226;SDS011;2127;51.046;7.080;2023-05-15T12:28:42;2.93;;;2.73;;
4226;SDS011;2127;51.046;7.080;2023-05-15T12:31:09;1.83;;;1.73;;
4226;SDS011;2127;51.046;7.080;2023-05-15T12:33:36;3.07;;;2.47;;
4226;SDS011;2127;51.046;7.080;2023-05-15T12:36:04;2.33;;;2.23;;
4226;SDS011;2127;51.046;7.080;2023-05-15T12:38:31;6.63;;;2.20;;
4226;SDS011;2127;51.046;7.080;2023-05-15T12:40:58;1.57;;;1.57;;
4226;SDS011;2127;51.046;7.080;2023-05-15T12:43:25;2.13;;;2.03;;
4226;SDS011;2127;51.046;7.080;2023-05-15T12:45:52;2.20;;;2.10;;
4226;SDS011;2127;51.046;7.080;2023-05-15T12:48:18;1.83;;;1.73;;
4226;SDS011;2127;51.046;7.080;2023-05-15T12:50:44;2.30;;;2.20;;
4226;SDS011;2127;51.046;7.080;2023-05-15T12:53:13;4.17;;;2.20;;
4226;SDS011;2127;51.046;7.080;2023-05-15T12:55:40;2.10;;;2.00;;
4226;SDS011;2127;51.046;7.080;2023-05-15T12:58:07;1.97;;;1.87;;
4226;SDS011;2127;51.046;7.080;2023-05-15T13:00:34;2.67;;;1.87;;
4226;SDS011;2127;51.046;7.080;2023-05-15T13:03:02;3.33;;;2.23;;
4226;SDS011;2127;51.046;7.080;2023-05-15T13:05:30;2.30;;;2.10;;
4226;SDS011;2127;51.046;7.080;2023-05-15T13:07:57;3.80;;;2.97;;
4226;SDS011;2127;51.046;7.080;2023-05-15T13:10:25;2.50;;;2.40;;
4226;SDS011;2127;51.046;7.080;2023-05-15T13:12:52;3.47;;;2.70;;
4226;SDS011;2127;51.046;7.080;2023-05-15T13:15:23;2.67;;;2.53;;
4226;SDS011;2127;51.046;7.080;2023-05-15T13:17:53;2.47;;;2.27;;
4226;SDS011;2127;51.046;7.080;2023-05-15T13:20:21;3.27;;;1.67;;
4226;SDS011;2127;51.046;7.080;2023-05-15T13:22:47;1.70;;;1.60;;
4226;SDS011;2127;51.046;7.080;2023-05-15T13:25:15;1.60;;;1.50;;
4226;SDS011;2127;51.046;7.080;2023-05-15T13:27:43;2.40;;;1.47;;
4226;SDS011;2127;51.046;7.080;2023-05-15T13:30:10;1.40;;;1.30;;
4226;SDS011;2127;51.046;7.080;2023-05-15T13:32:36;2.00;;;1.83;;
4226;SDS011;2127;51.046;7.080;2023-05-15T13:35:03;2.17;;;2.07;;
4226;SDS011;2127;51.046;7.080;2023-05-15T13:37:29;2.87;;;1.87;;
4226;SDS011;2127;51.046;7.080;2023-05-15T13:39:56;1.70;;;1.57;;
4226;SDS011;2127;51.046;7.080;2023-05-15T13:42:22;1.87;;;1.77;;
4226;SDS011;2127;51.046;7.080;2023-05-15T13:44:49;1.63;;;1.37;;
4226;SDS011;2127;51.046;7.080;2023-05-15T13:47:16;1.70;;;1.60;;
4226;SDS011;2127;51.046;7.080;2023-05-15T13:49:42;1.47;;;1.47;;
4226;SDS011;2127;51.046;7.080;2023-05-15T13:52:08;1.73;;;1.70;;
4226;SDS011;2127;51.046;7.080;2023-05-15T13:54:35;2.40;;;2.20;;
4226;SDS011;2127;51.046;7.080;2023-05-15T13:57:01;2.60;;;2.40;;
4226;SDS011;2127;51.046;7.080;2023-05-15T13:59:27;1.57;;;1.57;;
4226;SDS011;2127;51.046;7.080;2023-05-15T14:01:55;4.10;;;2.20;;
4226;SDS011;2127;51.046;7.080;2023-05-15T14:04:21;1.70;;;1.60;;
4226;SDS011;2127;51.046;7.080;2023-05-15T14:06:47;1.30;;;1.30;;
4226;SDS011;2127;51.046;7.080;2023-05-15T14:09:14;2.10;;;2.00;;
4226;SDS011;2127;51.046;7.080;2023-05-15T14:11:40;1.93;;;1.83;;
4226;SDS011;2127;51.046;7.080;2023-05-15T14:14:06;1.90;;;1.80;;
4226;SDS011;2127;51.046;7.080;2023-05-15T14:16:32;2.43;;;2.33;;
4226;SDS011;2127;51.046;7.080;2023-05-15T14:19:00;2.83;;;1.93;;
4226;SDS011;2127;51.046;7.080;2023-05-15T14:21:26;2.60;;;1.47;;
4226;SDS011;2127;51.046;7.080;2023-05-15T14:23:53;1.90;;;1.80;;
4226;SDS011;2127;51.046;7.080;2023-05-15T14:26:19;2.60;;;1.73;;
4226;SDS011;2127;51.046;7.080;2023-05-15T14:28:46;1.73;;;1.53;;
4226;SDS011;2127;51.046;7.080;2023-05-15T14:31:12;1.27;;;1.27;;
4226;SDS011;2127;51.046;7.080;2023-05-15T14:33:38;1.63;;;1.53;;
4226;SDS011;2127;51.046;7.080;2023-05-15T14:36:06;2.83;;;2.60;;
4226;SDS011;2127;51.046;7.080;2023-05-15T14:38:32;1.70;;;1.60;;
4226;SDS011;2127;51.046;7.080;2023-05-15T14:40:59;2.60;;;2.50;;
4226;SDS011;2127;51.046;7.080;2023-05-15T14:43:25;2.13;;;2.03;;
4226;SDS011;2127;51.046;7.080;2023-05-15T14:45:52;3.60;;;2.33;;
4226;SDS011;2127;51.046;7.080;2023-05-15T14:48:18;2.20;;;2.10;;
4226;SDS011;2127;51.046;7.080;2023-05-15T14:50:45;2.47;;;2.37;;
4226;SDS011;2127;51.046;7.080;2023-05-15T14:53:12;3.00;;;2.80;;
4226;SDS011;2127;51.046;7.080;2023-05-15T14:55:39;2.53;;;2.40;;
4226;SDS011;2127;51.046;7.080;2023-05-15T14:58:05;3.37;;;3.07;;
4226;SDS011;2127;51.046;7.080;2023-05-15T15:00:35;3.60;;;3.30;;
4226;SDS011;2127;51.046;7.080;2023-05-15T15:03:01;2.70;;;2.50;;
4226;SDS011;2127;51.046;7.080;2023-05-15T15:05:27;2.20;;;2.10;;
4226;SDS011;2127;51.046;7.080;2023-05-15T15:07:57;6.30;;;3.30;;
4226;SDS011;2127;51.046;7.080;2023-05-15T15:10:25;2.80;;;2.60;;
4226;SDS011;2127;51.046;7.080;2023-05-15T15:12:52;5.17;;;3.57;;